Terminal Aerodrome Forecast
Issued by NWS

Home | Current Version | Previous Version | Text Only | Print | Product List | Glossary On
Versions: 1 2 3 4 5 6 7 8 9 10 11 12 13 14 15 16
000
FTUS45 KPIH 021100
TAFSUN
TAF
KSUN 021120Z 0212/0312 31011KT P6SM SKC
     FM021800 15010KT P6SM SCT120
     FM022100 22012G20KT P6SM SCT100
     FM030200 32010KT P6SM SKC
      AMD LTD TO CLD VIS AND WIND TIL 021300=

USA.gov is the U.S. government's official web portal to all federal, state and local government web resources and services.